sensor_id;sensor_type;location;lat;lon;timestamp;temperature;humidity
25906;DHT22;13713;52.552;13.204;2023-02-01T00:02:01;14.10;64.40
25906;DHT22;13713;52.552;13.204;2023-02-01T00:04:28;14.10;64.40
25906;DHT22;13713;52.552;13.204;2023-02-01T00:06:53;14.10;64.40
25906;DHT22;13713;52.552;13.204;2023-02-01T00:09:19;14.10;64.40
25906;DHT22;13713;52.552;13.204;2023-02-01T00:11:45;14.20;64.50
25906;DHT22;13713;52.552;13.204;2023-02-01T00:14:11;14.10;64.40
25906;DHT22;13713;52.552;13.204;2023-02-01T00:16:37;14.00;64.40
25906;DHT22;13713;52.552;13.204;2023-02-01T00:19:05;14.00;64.30
25906;DHT22;13713;52.552;13.204;2023-02-01T00:21:32;14.00;64.40
25906;DHT22;13713;52.552;13.204;2023-02-01T00:23:58;14.00;64.30
25906;DHT22;13713;52.552;13.204;2023-02-01T00:28:59;14.00;64.20
25906;DHT22;13713;52.552;13.204;2023-02-01T00:31:24;14.00;64.30
25906;DHT22;13713;52.552;13.204;2023-02-01T00:33:50;14.00;64.20
25906;DHT22;13713;52.552;13.204;2023-02-01T00:36:16;14.00;64.20
25906;DHT22;13713;52.552;13.204;2023-02-01T00:38:42;14.00;64.20
25906;DHT22;13713;52.552;13.204;2023-02-01T00:41:15;14.00;64.20
25906;DHT22;13713;52.552;13.204;2023-02-01T00:43:41;14.00;64.20
25906;DHT22;13713;52.552;13.204;2023-02-01T00:46:07;14.00;64.10
25906;DHT22;13713;52.552;13.204;2023-02-01T00:48:33;14.00;64.30
25906;DHT22;13713;52.552;13.204;2023-02-01T00:51:05;14.00;64.10
25906;DHT22;13713;52.552;13.204;2023-02-01T00:53:31;14.00;64.40
25906;DHT22;13713;52.552;13.204;2023-02-01T00:55:57;14.00;64.30
25906;DHT22;13713;52.552;13.204;2023-02-01T00:58:23;14.00;64.20
25906;DHT22;13713;52.552;13.204;2023-02-01T01:03:30;14.00;64.30
25906;DHT22;13713;52.552;13.204;2023-02-01T01:05:59;13.90;64.20
25906;DHT22;13713;52.552;13.204;2023-02-01T01:08:26;14.00;64.30
25906;DHT22;13713;52.552;13.204;2023-02-01T01:10:52;13.90;64.30
25906;DHT22;13713;52.552;13.204;2023-02-01T01:13:18;13.90;64.30
25906;DHT22;13713;52.552;13.204;2023-02-01T01:15:44;13.90;64.30
25906;DHT22;13713;52.552;13.204;2023-02-01T01:18:10;13.90;64.20
25906;DHT22;13713;52.552;13.204;2023-02-01T01:20:38;13.90;64.30
25906;DHT22;13713;52.552;13.204;2023-02-01T01:23:05;13.90;64.30
25906;DHT22;13713;52.552;13.204;2023-02-01T01:25:31;13.90;64.50
25906;DHT22;13713;52.552;13.204;2023-02-01T01:27:57;13.80;64.30
25906;DHT22;13713;52.552;13.204;2023-02-01T01:30:23;13.90;64.40
25906;DHT22;13713;52.552;13.204;2023-02-01T01:32:49;13.90;64.40
25906;DHT22;13713;52.552;13.204;2023-02-01T01:35:14;13.90;64.50
25906;DHT22;13713;52.552;13.204;2023-02-01T01:37:40;13.90;64.50
25906;DHT22;13713;52.552;13.204;2023-02-01T01:40:07;13.90;64.40
25906;DHT22;13713;52.552;13.204;2023-02-01T01:42:42;13.80;64.40
25906;DHT22;13713;52.552;13.204;2023-02-01T01:45:34;13.80;64.40
25906;DHT22;13713;52.552;13.204;2023-02-01T01:48:28;13.80;64.30
25906;DHT22;13713;52.552;13.204;2023-02-01T01:51:06;13.80;64.30
25906;DHT22;13713;52.552;13.204;2023-02-01T01:53:37;13.80;64.40
25906;DHT22;13713;52.552;13.204;2023-02-01T01:56:03;13.80;64.30
25906;DHT22;13713;52.552;13.204;2023-02-01T01:58:32;13.80;64.40
25906;DHT22;13713;52.552;13.204;2023-02-01T02:00:58;13.80;64.30
25906;DHT22;13713;52.552;13.204;2023-02-01T02:03:32;13.80;64.30
25906;DHT22;13713;52.552;13.204;2023-02-01T02:06:01;13.80;64.30
25906;DHT22;13713;52.552;13.204;2023-02-01T02:08:28;13.80;64.20
25906;DHT22;13713;52.552;13.204;2023-02-01T02:10:54;13.80;64.30
25906;DHT22;13713;52.552;13.204;2023-02-01T02:13:34;13.80;64.30
25906;DHT22;13713;52.552;13.204;2023-02-01T02:21:41;13.80;64.30
25906;DHT22;13713;52.552;13.204;2023-02-01T02:27:10;13.80;64.40
25906;DHT22;13713;52.552;13.204;2023-02-01T02:34:57;13.80;64.40
25906;DHT22;13713;52.552;13.204;2023-02-01T02:37:39;13.80;64.30
25906;DHT22;13713;52.552;13.204;2023-02-01T02:43:33;13.70;64.30
25906;DHT22;13713;52.552;13.204;2023-02-01T02:46:00;13.80;64.30
25906;DHT22;13713;52.552;13.204;2023-02-01T02:49:12;13.70;64.20
25906;DHT22;13713;52.552;13.204;2023-02-01T02:54:37;13.70;64.30
25906;DHT22;13713;52.552;13.204;2023-02-01T02:57:26;13.70;64.30
25906;DHT22;13713;52.552;13.204;2023-02-01T03:00:15;13.70;64.50
25906;DHT22;13713;52.552;13.204;2023-02-01T03:03:01;13.70;64.20
25906;DHT22;13713;52.552;13.204;2023-02-01T03:05:47;13.70;64.30
25906;DHT22;13713;52.552;13.204;2023-02-01T03:08:17;13.70;64.30
25906;DHT22;13713;52.552;13.204;2023-02-01T03:11:00;13.70;64.30
25906;DHT22;13713;52.552;13.204;2023-02-01T03:13:38;13.70;64.30
25906;DHT22;13713;52.552;13.204;2023-02-01T03:18:48;13.70;65.10
25906;DHT22;13713;52.552;13.204;2023-02-01T03:21:21;13.70;64.20
25906;DHT22;13713;52.552;13.204;2023-02-01T03:23:49;13.70;64.30
25906;DHT22;13713;52.552;13.204;2023-02-01T03:26:17;13.60;64.20
25906;DHT22;13713;52.552;13.204;2023-02-01T03:28:52;13.60;64.20
25906;DHT22;13713;52.552;13.204;2023-02-01T03:31:20;13.70;64.30
25906;DHT22;13713;52.552;13.204;2023-02-01T03:33:46;13.70;64.30
25906;DHT22;13713;52.552;13.204;2023-02-01T03:36:21;13.70;64.30
25906;DHT22;13713;52.552;13.204;2023-02-01T03:39:09;13.60;64.30
25906;DHT22;13713;52.552;13.204;2023-02-01T03:41:48;13.70;64.40
25906;DHT22;13713;52.552;13.204;2023-02-01T03:47:18;13.60;64.30
25906;DHT22;13713;52.552;13.204;2023-02-01T03:50:05;13.60;64.30
25906;DHT22;13713;52.552;13.204;2023-02-01T03:52:40;13.60;64.30
25906;DHT22;13713;52.552;13.204;2023-02-01T03:55:08;13.60;64.30
25906;DHT22;13713;52.552;13.204;2023-02-01T03:57:41;13.60;64.40
25906;DHT22;13713;52.552;13.204;2023-02-01T04:02:43;13.60;64.30
25906;DHT22;13713;52.552;13.204;2023-02-01T04:05:09;13.60;64.40
25906;DHT22;13713;52.552;13.204;2023-02-01T04:07:37;13.60;64.40
25906;DHT22;13713;52.552;13.204;2023-02-01T04:10:03;13.60;64.40
25906;DHT22;13713;52.552;13.204;2023-02-01T04:12:29;13.60;64.30
25906;DHT22;13713;52.552;13.204;2023-02-01T04:14:54;13.60;64.40
25906;DHT22;13713;52.552;13.204;2023-02-01T04:17:20;13.60;64.50
25906;DHT22;13713;52.552;13.204;2023-02-01T04:19:46;13.60;64.50
25906;DHT22;13713;52.552;13.204;2023-02-01T04:22:11;13.60;64.50
25906;DHT22;13713;52.552;13.204;2023-02-01T04:24:38;13.60;64.60
25906;DHT22;13713;52.552;13.204;2023-02-01T04:27:03;13.60;64.30
25906;DHT22;13713;52.552;13.204;2023-02-01T04:29:29;13.60;64.30
25906;DHT22;13713;52.552;13.204;2023-02-01T04:31:55;13.60;64.40
25906;DHT22;13713;52.552;13.204;2023-02-01T04:34:20;13.70;64.50
25906;DHT22;13713;52.552;13.204;2023-02-01T04:36:48;13.50;64.40
25906;DHT22;13713;52.552;13.204;2023-02-01T04:39:13;13.60;65.00
25906;DHT22;13713;52.552;13.204;2023-02-01T04:41:39;13.60;64.70
25906;DHT22;13713;52.552;13.204;2023-02-01T04:44:05;13.60;64.80
25906;DHT22;13713;52.552;13.204;2023-02-01T04:46:31;13.60;65.30
25906;DHT22;13713;52.552;13.204;2023-02-01T04:48:56;13.70;64.50
25906;DHT22;13713;52.552;13.204;2023-02-01T04:51:22;13.60;64.10
25906;DHT22;13713;52.552;13.204;2023-02-01T04:53:48;13.60;64.10
25906;DHT22;13713;52.552;13.204;2023-02-01T04:56:14;13.60;64.10
25906;DHT22;13713;52.552;13.204;2023-02-01T04:58:39;13.60;64.00
25906;DHT22;13713;52.552;13.204;2023-02-01T05:01:06;13.60;64.10
25906;DHT22;13713;52.552;13.204;2023-02-01T05:03:33;13.60;64.00
25906;DHT22;13713;52.552;13.204;2023-02-01T05:05:59;13.60;64.00
25906;DHT22;13713;52.552;13.204;2023-02-01T05:08:25;13.60;64.10
25906;DHT22;13713;52.552;13.204;2023-02-01T05:10:52;13.60;64.00
25906;DHT22;13713;52.552;13.204;2023-02-01T05:13:18;13.60;64.00
25906;DHT22;13713;52.552;13.204;2023-02-01T05:16:02;13.60;64.10
25906;DHT22;13713;52.552;13.204;2023-02-01T05:18:28;13.60;64.10
25906;DHT22;13713;52.552;13.204;2023-02-01T05:20:55;13.60;64.10
25906;DHT22;13713;52.552;13.204;2023-02-01T05:23:20;13.60;64.00
25906;DHT22;13713;52.552;13.204;2023-02-01T05:25:46;13.70;64.10
25906;DHT22;13713;52.552;13.204;2023-02-01T05:28:12;13.60;63.90
25906;DHT22;13713;52.552;13.204;2023-02-01T05:30:37;13.70;63.70
25906;DHT22;13713;52.552;13.204;2023-02-01T05:33:04;13.70;64.00
25906;DHT22;13713;52.552;13.204;2023-02-01T05:35:29;13.70;63.90
25906;DHT22;13713;52.552;13.204;2023-02-01T05:37:55;13.70;63.90
25906;DHT22;13713;52.552;13.204;2023-02-01T05:40:21;13.70;64.00
25906;DHT22;13713;52.552;13.204;2023-02-01T05:42:47;13.70;63.90
25906;DHT22;13713;52.552;13.204;2023-02-01T05:45:13;13.70;64.00
25906;DHT22;13713;52.552;13.204;2023-02-01T05:47:39;13.70;63.80
25906;DHT22;13713;52.552;13.204;2023-02-01T05:50:05;13.70;63.80
25906;DHT22;13713;52.552;13.204;2023-02-01T05:52:31;13.70;63.80
25906;DHT22;13713;52.552;13.204;2023-02-01T05:54:57;13.70;63.60
25906;DHT22;13713;52.552;13.204;2023-02-01T05:57:23;13.70;63.60
25906;DHT22;13713;52.552;13.204;2023-02-01T05:59:49;13.70;63.60
25906;DHT22;13713;52.552;13.204;2023-02-01T06:02:15;13.80;63.60
25906;DHT22;13713;52.552;13.204;2023-02-01T06:04:41;13.80;63.70
25906;DHT22;13713;52.552;13.204;2023-02-01T06:07:08;13.80;63.70
25906;DHT22;13713;52.552;13.204;2023-02-01T06:09:36;13.80;63.70
25906;DHT22;13713;52.552;13.204;2023-02-01T06:12:02;13.80;63.60
25906;DHT22;13713;52.552;13.204;2023-02-01T06:14:28;13.80;63.60
25906;DHT22;13713;52.552;13.204;2023-02-01T06:16:54;13.80;63.60
25906;DHT22;13713;52.552;13.204;2023-02-01T06:19:21;13.80;63.80
25906;DHT22;13713;52.552;13.204;2023-02-01T06:21:46;13.80;63.60
25906;DHT22;13713;52.552;13.204;2023-02-01T06:24:12;13.80;63.60
25906;DHT22;13713;52.552;13.204;2023-02-01T06:26:38;13.80;63.80
25906;DHT22;13713;52.552;13.204;2023-02-01T06:29:06;13.80;63.70
25906;DHT22;13713;52.552;13.204;2023-02-01T06:31:35;13.80;63.80
25906;DHT22;13713;52.552;13.204;2023-02-01T06:34:01;13.80;63.50
25906;DHT22;13713;52.552;13.204;2023-02-01T06:36:28;13.90;63.80
25906;DHT22;13713;52.552;13.204;2023-02-01T06:38:55;13.90;63.70
25906;DHT22;13713;52.552;13.204;2023-02-01T06:41:22;13.90;63.80
25906;DHT22;13713;52.552;13.204;2023-02-01T06:43:48;14.00;63.70
25906;DHT22;13713;52.552;13.204;2023-02-01T06:46:14;13.90;63.50
25906;DHT22;13713;52.552;13.204;2023-02-01T06:48:40;13.90;63.30
25906;DHT22;13713;52.552;13.204;2023-02-01T06:51:05;13.90;63.40
25906;DHT22;13713;52.552;13.204;2023-02-01T06:53:31;14.00;63.50
25906;DHT22;13713;52.552;13.204;2023-02-01T06:55:59;14.00;63.70
25906;DHT22;13713;52.552;13.204;2023-02-01T06:58:29;14.00;63.50
25906;DHT22;13713;52.552;13.204;2023-02-01T07:00:55;14.00;63.60
25906;DHT22;13713;52.552;13.204;2023-02-01T07:03:20;14.00;63.80
25906;DHT22;13713;52.552;13.204;2023-02-01T07:05:46;14.10;64.10
25906;DHT22;13713;52.552;13.204;2023-02-01T07:08:12;14.10;62.40
25906;DHT22;13713;52.552;13.204;2023-02-01T07:10:38;14.10;61.80
25906;DHT22;13713;52.552;13.204;2023-02-01T07:13:04;14.10;62.30
25906;DHT22;13713;52.552;13.204;2023-02-01T07:15:30;14.10;62.80
25906;DHT22;13713;52.552;13.204;2023-02-01T07:17:55;14.10;63.00
25906;DHT22;13713;52.552;13.204;2023-02-01T07:20:21;14.20;63.20
25906;DHT22;13713;52.552;13.204;2023-02-01T07:22:47;14.20;63.20
25906;DHT22;13713;52.552;13.204;2023-02-01T07:25:13;14.10;63.20
25906;DHT22;13713;52.552;13.204;2023-02-01T07:27:38;14.20;63.50
25906;DHT22;13713;52.552;13.204;2023-02-01T07:30:05;14.20;63.50
25906;DHT22;13713;52.552;13.204;2023-02-01T07:32:31;14.30;63.60
25906;DHT22;13713;52.552;13.204;2023-02-01T07:34:57;14.30;63.20
25906;DHT22;13713;52.552;13.204;2023-02-01T07:37:23;14.30;63.30
25906;DHT22;13713;52.552;13.204;2023-02-01T07:39:50;14.30;63.10
25906;DHT22;13713;52.552;13.204;2023-02-01T07:42:16;14.40;63.30
25906;DHT22;13713;52.552;13.204;2023-02-01T07:44:42;14.40;63.30
25906;DHT22;13713;52.552;13.204;2023-02-01T07:47:07;14.40;63.50
25906;DHT22;13713;52.552;13.204;2023-02-01T07:49:33;14.50;63.80
25906;DHT22;13713;52.552;13.204;2023-02-01T07:51:59;14.50;63.90
25906;DHT22;13713;52.552;13.204;2023-02-01T07:54:24;14.50;64.00
25906;DHT22;13713;52.552;13.204;2023-02-01T07:56:50;14.50;63.80
25906;DHT22;13713;52.552;13.204;2023-02-01T07:59:16;14.50;63.80
25906;DHT22;13713;52.552;13.204;2023-02-01T08:01:42;14.60;63.60
25906;DHT22;13713;52.552;13.204;2023-02-01T08:04:10;14.70;63.70
25906;DHT22;13713;52.552;13.204;2023-02-01T08:06:36;14.70;63.50
25906;DHT22;13713;52.552;13.204;2023-02-01T08:09:03;14.80;64.50
25906;DHT22;13713;52.552;13.204;2023-02-01T08:11:29;14.80;64.40
25906;DHT22;13713;52.552;13.204;2023-02-01T08:13:55;14.80;64.20
25906;DHT22;13713;52.552;13.204;2023-02-01T08:16:22;14.90;64.90
25906;DHT22;13713;52.552;13.204;2023-02-01T08:18:49;14.80;64.20
25906;DHT22;13713;52.552;13.204;2023-02-01T08:21:20;14.80;64.90
25906;DHT22;13713;52.552;13.204;2023-02-01T08:23:48;14.90;64.70
25906;DHT22;13713;52.552;13.204;2023-02-01T08:26:15;14.90;64.10
25906;DHT22;13713;52.552;13.204;2023-02-01T08:28:47;14.90;65.00
25906;DHT22;13713;52.552;13.204;2023-02-01T08:31:16;15.00;64.80
25906;DHT22;13713;52.552;13.204;2023-02-01T08:33:42;14.90;64.90
25906;DHT22;13713;52.552;13.204;2023-02-01T08:36:09;15.00;65.60
25906;DHT22;13713;52.552;13.204;2023-02-01T08:38:37;15.00;65.60
25906;DHT22;13713;52.552;13.204;2023-02-01T08:41:11;15.00;64.70
25906;DHT22;13713;52.552;13.204;2023-02-01T08:43:37;15.10;64.20
25906;DHT22;13713;52.552;13.204;2023-02-01T08:46:04;15.10;64.50
25906;DHT22;13713;52.552;13.204;2023-02-01T08:48:31;15.10;63.90
25906;DHT22;13713;52.552;13.204;2023-02-01T08:50:57;15.10;64.00
25906;DHT22;13713;52.552;13.204;2023-02-01T08:53:25;15.10;64.10
25906;DHT22;13713;52.552;13.204;2023-02-01T08:55:51;15.10;64.30
25906;DHT22;13713;52.552;13.204;2023-02-01T08:58:17;15.10;64.10
25906;DHT22;13713;52.552;13.204;2023-02-01T09:00:43;15.20;64.70
25906;DHT22;13713;52.552;13.204;2023-02-01T09:03:11;15.30;64.50
25906;DHT22;13713;52.552;13.204;2023-02-01T09:05:37;15.20;64.00
25906;DHT22;13713;52.552;13.204;2023-02-01T09:08:04;15.20;64.20
25906;DHT22;13713;52.552;13.204;2023-02-01T09:10:29;15.30;64.60
25906;DHT22;13713;52.552;13.204;2023-02-01T09:12:55;15.30;64.40
25906;DHT22;13713;52.552;13.204;2023-02-01T09:15:21;15.40;64.40
25906;DHT22;13713;52.552;13.204;2023-02-01T09:17:46;15.40;65.00
25906;DHT22;13713;52.552;13.204;2023-02-01T09:20:12;15.50;64.60
25906;DHT22;13713;52.552;13.204;2023-02-01T09:22:38;15.50;64.20
25906;DHT22;13713;52.552;13.204;2023-02-01T09:25:04;15.40;64.20
25906;DHT22;13713;52.552;13.204;2023-02-01T09:27:30;15.50;64.50
25906;DHT22;13713;52.552;13.204;2023-02-01T09:29:56;15.60;64.60
25906;DHT22;13713;52.552;13.204;2023-02-01T09:32:23;15.60;63.80
25906;DHT22;13713;52.552;13.204;2023-02-01T09:34:50;15.60;63.80
25906;DHT22;13713;52.552;13.204;2023-02-01T09:37:16;15.60;64.40
25906;DHT22;13713;52.552;13.204;2023-02-01T09:39:42;15.70;63.90
25906;DHT22;13713;52.552;13.204;2023-02-01T09:42:15;15.70;63.90
25906;DHT22;13713;52.552;13.204;2023-02-01T09:45:22;15.70;64.60
25906;DHT22;13713;52.552;13.204;2023-02-01T09:47:55;15.80;63.90
25906;DHT22;13713;52.552;13.204;2023-02-01T09:50:31;15.80;63.40
25906;DHT22;13713;52.552;13.204;2023-02-01T09:55:41;15.80;63.00
25906;DHT22;13713;52.552;13.204;2023-02-01T10:00:58;15.80;63.60
25906;DHT22;13713;52.552;13.204;2023-02-01T10:03:27;15.90;62.90
25906;DHT22;13713;52.552;13.204;2023-02-01T10:12:25;15.90;61.70
25906;DHT22;13713;52.552;13.204;2023-02-01T10:15:18;16.00;62.50
25906;DHT22;13713;52.552;13.204;2023-02-01T10:23:31;16.00;60.70
25906;DHT22;13713;52.552;13.204;2023-02-01T10:26:22;16.10;60.70
25906;DHT22;13713;52.552;13.204;2023-02-01T10:28:54;16.00;60.50
25906;DHT22;13713;52.552;13.204;2023-02-01T10:31:24;16.10;60.80
25906;DHT22;13713;52.552;13.204;2023-02-01T10:34:01;16.20;60.60
25906;DHT22;13713;52.552;13.204;2023-02-01T10:36:35;16.10;60.60
25906;DHT22;13713;52.552;13.204;2023-02-01T10:39:03;16.20;60.90
25906;DHT22;13713;52.552;13.204;2023-02-01T10:41:36;16.20;60.50
25906;DHT22;13713;52.552;13.204;2023-02-01T10:44:28;16.20;60.20
25906;DHT22;13713;52.552;13.204;2023-02-01T10:46:55;16.30;59.90
25906;DHT22;13713;52.552;13.204;2023-02-01T10:49:37;16.30;60.10
25906;DHT22;13713;52.552;13.204;2023-02-01T10:52:31;16.30;60.10
25906;DHT22;13713;52.552;13.204;2023-02-01T10:55:29;16.30;59.80
25906;DHT22;13713;52.552;13.204;2023-02-01T10:58:00;16.30;59.70
25906;DHT22;13713;52.552;13.204;2023-02-01T11:00:27;16.40;60.00
25906;DHT22;13713;52.552;13.204;2023-02-01T11:02:54;16.40;59.30
25906;DHT22;13713;52.552;13.204;2023-02-01T11:05:20;16.40;59.50
25906;DHT22;13713;52.552;13.204;2023-02-01T11:07:53;16.40;59.60
25906;DHT22;13713;52.552;13.204;2023-02-01T11:11:02;16.50;59.20
25906;DHT22;13713;52.552;13.204;2023-02-01T11:13:32;16.50;59.10
25906;DHT22;13713;52.552;13.204;2023-02-01T11:16:03;16.50;59.20
25906;DHT22;13713;52.552;13.204;2023-02-01T11:18:33;16.60;59.00
25906;DHT22;13713;52.552;13.204;2023-02-01T11:21:00;16.50;58.70
25906;DHT22;13713;52.552;13.204;2023-02-01T11:23:28;16.60;58.90
25906;DHT22;13713;52.552;13.204;2023-02-01T11:26:19;16.60;58.40
25906;DHT22;13713;52.552;13.204;2023-02-01T11:28:57;16.60;58.20
25906;DHT22;13713;52.552;13.204;2023-02-01T11:31:25;16.70;59.00
25906;DHT22;13713;52.552;13.204;2023-02-01T11:33:54;16.70;58.30
25906;DHT22;13713;52.552;13.204;2023-02-01T11:36:26;16.70;58.40
25906;DHT22;13713;52.552;13.204;2023-02-01T11:41:54;16.70;58.40
25906;DHT22;13713;52.552;13.204;2023-02-01T11:44:22;16.70;58.40
25906;DHT22;13713;52.552;13.204;2023-02-01T11:46:48;16.70;58.00
25906;DHT22;13713;52.552;13.204;2023-02-01T11:49:23;16.70;58.30
25906;DHT22;13713;52.552;13.204;2023-02-01T12:06:43;16.90;57.90
25906;DHT22;13713;52.552;13.204;2023-02-01T12:17:40;16.90;57.80
25906;DHT22;13713;52.552;13.204;2023-02-01T12:31:39;17.00;58.30
25906;DHT22;13713;52.552;13.204;2023-02-01T12:34:18;16.90;58.30
25906;DHT22;13713;52.552;13.204;2023-02-01T12:39:31;16.90;59.10
25906;DHT22;13713;52.552;13.204;2023-02-01T12:42:08;17.00;59.40
25906;DHT22;13713;52.552;13.204;2023-02-01T12:44:56;17.10;59.40
25906;DHT22;13713;52.552;13.204;2023-02-01T12:47:33;17.10;59.40
25906;DHT22;13713;52.552;13.204;2023-02-01T12:50:05;17.20;60.10
25906;DHT22;13713;52.552;13.204;2023-02-01T12:52:49;17.20;59.50
25906;DHT22;13713;52.552;13.204;2023-02-01T12:55:32;17.30;60.20
25906;DHT22;13713;52.552;13.204;2023-02-01T12:58:23;17.30;59.20
25906;DHT22;13713;52.552;13.204;2023-02-01T13:01:06;17.30;59.20
25906;DHT22;13713;52.552;13.204;2023-02-01T13:06:33;17.30;59.30
25906;DHT22;13713;52.552;13.204;2023-02-01T13:09:05;17.40;60.70
25906;DHT22;13713;52.552;13.204;2023-02-01T13:11:38;17.40;59.70
25906;DHT22;13713;52.552;13.204;2023-02-01T13:14:33;17.40;60.00
25906;DHT22;13713;52.552;13.204;2023-02-01T13:25:02;17.50;61.10
25906;DHT22;13713;52.552;13.204;2023-02-01T13:27:29;17.50;60.80
25906;DHT22;13713;52.552;13.204;2023-02-01T13:30:33;17.50;60.90
25906;DHT22;13713;52.552;13.204;2023-02-01T13:33:20;17.50;61.10
25906;DHT22;13713;52.552;13.204;2023-02-01T13:39:45;17.50;61.20
25906;DHT22;13713;52.552;13.204;2023-02-01T13:44:31;17.60;62.00
25906;DHT22;13713;52.552;13.204;2023-02-01T13:47:09;17.60;62.70
25906;DHT22;13713;52.552;13.204;2023-02-01T13:49:39;17.60;63.10
25906;DHT22;13713;52.552;13.204;2023-02-01T13:52:05;17.60;62.70
25906;DHT22;13713;52.552;13.204;2023-02-01T13:54:37;17.60;62.50
25906;DHT22;13713;52.552;13.204;2023-02-01T13:57:06;17.50;62.10
25906;DHT22;13713;52.552;13.204;2023-02-01T14:08:23;17.70;62.50
25906;DHT22;13713;52.552;13.204;2023-02-01T14:10:57;17.70;61.90
25906;DHT22;13713;52.552;13.204;2023-02-01T14:21:32;17.70;62.60
25906;DHT22;13713;52.552;13.204;2023-02-01T14:26:46;17.80;62.30
25906;DHT22;13713;52.552;13.204;2023-02-01T15:01:34;17.80;63.00
25906;DHT22;13713;52.552;13.204;2023-02-01T15:06:52;17.80;62.40
25906;DHT22;13713;52.552;13.204;2023-02-01T15:09:26;17.80;62.70
25906;DHT22;13713;52.552;13.204;2023-02-01T15:12:14;17.80;63.60
25906;DHT22;13713;52.552;13.204;2023-02-01T15:17:31;17.80;62.80
25906;DHT22;13713;52.552;13.204;2023-02-01T15:20:22;17.80;62.90
25906;DHT22;13713;52.552;13.204;2023-02-01T15:23:06;17.80;62.30
25906;DHT22;13713;52.552;13.204;2023-02-01T15:25:40;17.70;62.10
25906;DHT22;13713;52.552;13.204;2023-02-01T15:28:13;17.60;62.50
25906;DHT22;13713;52.552;13.204;2023-02-01T15:30:40;17.50;62.60
25906;DHT22;13713;52.552;13.204;2023-02-01T15:33:18;17.40;63.20
25906;DHT22;13713;52.552;13.204;2023-02-01T15:35:47;17.40;63.30
25906;DHT22;13713;52.552;13.204;2023-02-01T15:46:45;17.10;62.80
25906;DHT22;13713;52.552;13.204;2023-02-01T15:49:29;17.00;63.50
25906;DHT22;13713;52.552;13.204;2023-02-01T15:51:58;17.10;63.80
25906;DHT22;13713;52.552;13.204;2023-02-01T15:54:28;17.00;63.70
25906;DHT22;13713;52.552;13.204;2023-02-01T15:56:58;17.00;64.00
25906;DHT22;13713;52.552;13.204;2023-02-01T15:59:29;17.00;64.20
25906;DHT22;13713;52.552;13.204;2023-02-01T16:01:55;16.90;64.20
25906;DHT22;13713;52.552;13.204;2023-02-01T16:04:25;16.90;64.20
25906;DHT22;13713;52.552;13.204;2023-02-01T16:06:59;16.90;65.00
25906;DHT22;13713;52.552;13.204;2023-02-01T16:09:39;16.80;64.30
25906;DHT22;13713;52.552;13.204;2023-02-01T16:12:32;16.80;64.50
25906;DHT22;13713;52.552;13.204;2023-02-01T16:15:01;16.70;64.40
25906;DHT22;13713;52.552;13.204;2023-02-01T16:17:27;16.70;64.10
25906;DHT22;13713;52.552;13.204;2023-02-01T16:19:53;16.70;64.50
25906;DHT22;13713;52.552;13.204;2023-02-01T16:22:19;16.60;64.80
25906;DHT22;13713;52.552;13.204;2023-02-01T16:24:44;16.50;65.00
25906;DHT22;13713;52.552;13.204;2023-02-01T16:27:10;16.50;65.20
25906;DHT22;13713;52.552;13.204;2023-02-01T16:29:36;16.40;65.20
25906;DHT22;13713;52.552;13.204;2023-02-01T16:32:01;16.40;65.30
25906;DHT22;13713;52.552;13.204;2023-02-01T16:34:27;16.40;65.40
25906;DHT22;13713;52.552;13.204;2023-02-01T16:36:53;16.30;65.50
25906;DHT22;13713;52.552;13.204;2023-02-01T16:39:22;16.30;65.50
25906;DHT22;13713;52.552;13.204;2023-02-01T16:41:49;16.30;65.60
25906;DHT22;13713;52.552;13.204;2023-02-01T16:44:15;16.30;65.60
25906;DHT22;13713;52.552;13.204;2023-02-01T16:46:43;16.20;65.40
25906;DHT22;13713;52.552;13.204;2023-02-01T16:49:22;16.20;65.40
25906;DHT22;13713;52.552;13.204;2023-02-01T16:51:49;16.20;65.40
25906;DHT22;13713;52.552;13.204;2023-02-01T16:54:18;16.10;65.50
25906;DHT22;13713;52.552;13.204;2023-02-01T16:56:45;16.00;65.30
25906;DHT22;13713;52.552;13.204;2023-02-01T16:59:11;16.10;65.50
25906;DHT22;13713;52.552;13.204;2023-02-01T17:01:37;16.10;65.40
25906;DHT22;13713;52.552;13.204;2023-02-01T17:04:04;16.00;65.50
25906;DHT22;13713;52.552;13.204;2023-02-01T17:06:30;16.00;65.40
25906;DHT22;13713;52.552;13.204;2023-02-01T17:08:59;16.00;65.40
25906;DHT22;13713;52.552;13.204;2023-02-01T17:11:26;16.10;65.50
25906;DHT22;13713;52.552;13.204;2023-02-01T17:13:52;16.00;65.50
25906;DHT22;13713;52.552;13.204;2023-02-01T17:18:46;15.90;65.40
25906;DHT22;13713;52.552;13.204;2023-02-01T17:21:12;15.90;65.50
25906;DHT22;13713;52.552;13.204;2023-02-01T17:23:38;15.90;65.60
25906;DHT22;13713;52.552;13.204;2023-02-01T17:26:04;15.80;65.50
25906;DHT22;13713;52.552;13.204;2023-02-01T17:28:30;15.80;65.30
25906;DHT22;13713;52.552;13.204;2023-02-01T17:30:56;15.80;65.10
25906;DHT22;13713;52.552;13.204;2023-02-01T17:33:30;15.80;65.90
25906;DHT22;13713;52.552;13.204;2023-02-01T17:35:57;15.90;65.20
25906;DHT22;13713;52.552;13.204;2023-02-01T17:38:23;15.80;65.10
25906;DHT22;13713;52.552;13.204;2023-02-01T17:40:50;15.80;65.10
25906;DHT22;13713;52.552;13.204;2023-02-01T17:43:20;15.80;65.10
25906;DHT22;13713;52.552;13.204;2023-02-01T17:45:49;15.80;65.10
25906;DHT22;13713;52.552;13.204;2023-02-01T17:48:18;15.70;65.10
25906;DHT22;13713;52.552;13.204;2023-02-01T17:50:45;15.80;65.30
25906;DHT22;13713;52.552;13.204;2023-02-01T17:53:12;15.70;65.20
25906;DHT22;13713;52.552;13.204;2023-02-01T17:55:42;15.70;65.20
25906;DHT22;13713;52.552;13.204;2023-02-01T17:58:10;15.60;65.00
25906;DHT22;13713;52.552;13.204;2023-02-01T18:00:37;15.60;65.10
25906;DHT22;13713;52.552;13.204;2023-02-01T18:03:03;15.60;65.10
25906;DHT22;13713;52.552;13.204;2023-02-01T18:05:40;15.60;65.10
25906;DHT22;13713;52.552;13.204;2023-02-01T18:08:07;15.50;65.20
25906;DHT22;13713;52.552;13.204;2023-02-01T18:10:34;15.50;65.10
25906;DHT22;13713;52.552;13.204;2023-02-01T18:13:03;15.50;65.00
25906;DHT22;13713;52.552;13.204;2023-02-01T18:15:30;15.60;65.00
25906;DHT22;13713;52.552;13.204;2023-02-01T18:17:56;15.50;65.10
25906;DHT22;13713;52.552;13.204;2023-02-01T18:20:24;15.60;65.10
25906;DHT22;13713;52.552;13.204;2023-02-01T18:22:50;15.50;64.80
25906;DHT22;13713;52.552;13.204;2023-02-01T18:25:25;15.50;64.90
25906;DHT22;13713;52.552;13.204;2023-02-01T18:27:53;15.40;64.90
25906;DHT22;13713;52.552;13.204;2023-02-01T18:30:20;15.40;64.80